createdAt,value
2018-09-23T00:04:53.918Z,5.90
2018-09-23T00:09:57.043Z,4.23
2018-09-23T00:15:00.152Z,5.90
2018-09-23T00:20:03.279Z,13.80
2018-09-23T00:25:06.370Z,3.70
2018-09-23T00:30:09.165Z,6.30
2018-09-23T00:35:12.255Z,5.57
2018-09-23T00:40:15.355Z,8.93
2018-09-23T00:45:18.443Z,11.53
2018-09-23T00:50:21.559Z,7.50
2018-09-23T00:55:24.673Z,7.23
2018-09-23T01:00:34.612Z,4.93
2018-09-23T01:05:37.695Z,9.33
2018-09-23T01:10:40.798Z,8.50
2018-09-23T01:15:43.915Z,8.33
2018-09-23T01:20:47.091Z,9.50
2018-09-23T01:25:50.204Z,10.77
2018-09-23T01:30:53.417Z,8.37
2018-09-23T01:35:56.523Z,8.87
2018-09-23T01:40:59.599Z,6.37
2018-09-23T01:46:02.866Z,8.33
2018-09-23T01:51:06.155Z,12.00
2018-09-23T01:56:09.262Z,7.50
2018-09-23T02:01:12.337Z,8.83
2018-09-23T02:06:15.431Z,8.97
2018-09-23T02:11:18.544Z,12.83
2018-09-23T02:16:21.619Z,8.27
2018-09-23T02:21:24.711Z,8.57
2018-09-23T02:26:27.811Z,8.70
2018-09-23T02:31:30.923Z,7.97
2018-09-23T02:36:34.030Z,7.90
2018-09-23T02:41:37.140Z,7.00
2018-09-23T02:46:40.236Z,10.23
2018-09-23T02:51:43.339Z,11.53
2018-09-23T02:56:46.435Z,8.87
2018-09-23T03:01:49.555Z,13.50
2018-09-23T03:06:52.663Z,8.20
2018-09-23T03:11:55.762Z,10.30
2018-09-23T03:16:58.923Z,8.10
2018-09-23T03:22:02.047Z,11.47
2018-09-23T03:27:05.115Z,9.67
2018-09-23T03:32:08.219Z,9.53
2018-09-23T03:37:11.311Z,9.63
2018-09-23T03:42:15.621Z,13.87
2018-09-23T03:47:18.743Z,12.43
2018-09-23T03:52:21.924Z,15.50
2018-09-23T03:57:25.024Z,11.10
2018-09-23T04:02:28.127Z,11.97
2018-09-23T04:07:31.239Z,17.27
2018-09-23T04:12:34.353Z,9.97
2018-09-23T04:17:37.458Z,17.53
2018-09-23T04:22:46.788Z,12.83
2018-09-23T04:27:50.339Z,21.50
2018-09-23T04:32:53.432Z,15.57
2018-09-23T04:37:56.516Z,15.63
2018-09-23T04:42:59.653Z,13.20
2018-09-23T04:48:02.718Z,16.20
2018-09-23T04:53:05.852Z,14.20
2018-09-23T04:58:08.935Z,10.83
2018-09-23T05:03:12.043Z,14.03
2018-09-23T05:08:15.154Z,14.10
2018-09-23T05:13:18.297Z,22.10
2018-09-23T05:18:21.415Z,17.40
2018-09-23T05:23:24.504Z,10.00
2018-09-23T05:28:27.608Z,13.73
2018-09-23T05:33:30.718Z,13.40
2018-09-23T05:38:33.813Z,18.00
2018-09-23T05:43:36.955Z,16.20
2018-09-23T05:48:40.030Z,15.40
2018-09-23T05:53:43.474Z,12.70
2018-09-23T05:58:46.579Z,16.07
2018-09-23T06:03:49.745Z,14.10
2018-09-23T06:08:52.903Z,15.50
2018-09-23T06:13:55.991Z,17.40
2018-09-23T06:18:59.080Z,18.47
2018-09-23T06:24:02.175Z,21.10
2018-09-23T06:29:05.574Z,16.27
2018-09-23T06:34:08.711Z,16.47
2018-09-23T06:39:11.802Z,20.80
2018-09-23T06:44:14.924Z,16.93
2018-09-23T06:49:18.011Z,17.10
2018-09-23T06:54:21.110Z,17.50
2018-09-23T06:59:24.324Z,17.70
2018-09-23T07:04:27.500Z,22.20
2018-09-23T07:09:30.543Z,16.17
2018-09-23T07:14:33.659Z,16.23
2018-09-23T07:19:36.781Z,17.93
2018-09-23T07:24:39.898Z,24.73
2018-09-23T07:29:43.016Z,19.23
2018-09-23T07:34:46.108Z,12.70
2018-09-23T07:39:49.321Z,18.30
2018-09-23T07:44:52.380Z,20.93
2018-09-23T07:49:55.479Z,19.03
2018-09-23T07:54:58.585Z,15.80
2018-09-23T08:00:01.703Z,16.07
2018-09-23T08:05:04.811Z,21.80
2018-09-23T08:10:08.039Z,23.53
2018-09-23T08:15:11.134Z,17.67
2018-09-23T08:20:14.355Z,14.83
2018-09-23T08:25:17.427Z,19.23
2018-09-23T08:30:20.577Z,19.00
2018-09-23T08:35:23.760Z,15.50
2018-09-23T08:40:26.876Z,24.70
2018-09-23T08:45:30.020Z,17.07
2018-09-23T08:50:33.338Z,18.30
2018-09-23T08:55:38.512Z,14.50
2018-09-23T09:00:41.744Z,15.57
2018-09-23T09:05:44.832Z,12.40
2018-09-23T09:10:48.027Z,15.63
2018-09-23T09:15:51.185Z,13.57
2018-09-23T09:20:54.910Z,12.17
2018-09-23T09:25:58.648Z,16.10
2018-09-23T09:31:02.342Z,9.93
2018-09-23T09:36:06.168Z,13.07
2018-09-23T09:41:09.995Z,14.93
2018-09-23T09:46:13.819Z,13.80
2018-09-23T09:51:17.552Z,9.97
2018-09-23T09:56:21.359Z,14.47
2018-09-23T10:01:25.258Z,19.43
2018-09-23T10:06:28.967Z,14.13
2018-09-23T10:11:32.765Z,10.70
2018-09-23T10:16:36.563Z,14.10
2018-09-23T10:21:40.767Z,10.53
2018-09-23T10:26:44.476Z,16.70
2018-09-23T10:31:49.569Z,6.43
2018-09-23T10:36:53.371Z,9.63
2018-09-23T10:41:57.096Z,14.93
2018-09-23T10:47:00.792Z,9.33
2018-09-23T10:52:04.524Z,8.50
2018-09-23T10:57:08.256Z,5.00
2018-09-23T11:02:11.988Z,6.77
2018-09-23T11:07:15.712Z,7.83
2018-09-23T11:12:19.436Z,6.47
2018-09-23T11:17:23.124Z,9.53
2018-09-23T11:22:26.820Z,9.83
2018-09-23T11:27:30.555Z,7.63
2018-09-23T11:32:34.279Z,6.17
2018-09-23T11:37:38.004Z,3.97
2018-09-23T11:42:41.754Z,7.30
2018-09-23T11:47:45.655Z,6.57
2018-09-23T11:52:49.375Z,5.13
2018-09-23T11:57:53.095Z,11.27
2018-09-23T12:02:56.804Z,3.50
2018-09-23T12:08:00.531Z,7.17
2018-09-23T12:13:04.231Z,4.83
2018-09-23T12:18:07.972Z,5.73
2018-09-23T12:23:11.688Z,4.83
2018-09-23T12:28:15.616Z,5.50
2018-09-23T12:33:19.426Z,3.80
2018-09-23T12:38:23.080Z,3.93
2018-09-23T12:43:27.099Z,8.67
2018-09-23T12:48:30.823Z,6.20
2018-09-23T12:53:34.539Z,3.87
2018-09-23T12:58:38.290Z,2.20
2018-09-23T13:03:41.991Z,2.30
2018-09-23T13:08:45.703Z,3.67
2018-09-23T13:13:49.431Z,9.43
2018-09-23T13:18:53.152Z,11.30
2018-09-23T13:23:56.903Z,4.90
2018-09-23T13:29:00.702Z,9.17
2018-09-23T13:34:04.443Z,6.60
2018-09-23T13:39:08.247Z,10.73
2018-09-23T13:44:12.020Z,6.13
2018-09-23T13:49:16.528Z,2.90
2018-09-23T13:54:20.534Z,2.50
2018-09-23T13:59:24.230Z,4.27
2018-09-23T14:04:28.036Z,3.67
2018-09-23T14:09:31.854Z,3.77
2018-09-23T14:14:35.680Z,6.90
2018-09-23T14:19:39.638Z,4.60
2018-09-23T14:24:43.404Z,2.57
2018-09-23T14:29:47.124Z,4.70
2018-09-23T14:34:50.872Z,3.20
2018-09-23T14:39:54.592Z,4.17
2018-09-23T14:44:58.339Z,3.40
2018-09-23T14:50:02.129Z,2.37
2018-09-23T14:55:05.946Z,3.43
2018-09-23T15:00:09.600Z,4.70
2018-09-23T15:05:13.324Z,3.37
2018-09-23T15:10:17.047Z,5.13
2018-09-23T15:15:20.771Z,3.93
2018-09-23T15:20:24.503Z,6.90
2018-09-23T15:25:28.234Z,9.70
2018-09-23T15:30:31.951Z,10.80
2018-09-23T15:35:35.643Z,7.27
2018-09-23T15:40:39.349Z,12.37
2018-09-23T15:45:43.168Z,9.77
2018-09-23T15:50:46.873Z,7.83
2018-09-23T15:55:50.624Z,15.37
2018-09-23T16:00:54.339Z,9.37
2018-09-23T16:05:58.079Z,9.23
2018-09-23T16:11:01.815Z,10.10
2018-09-23T16:16:05.565Z,11.37
2018-09-23T16:21:09.297Z,7.97
2018-09-23T16:26:13.040Z,9.00
2018-09-23T16:31:16.764Z,7.37
2018-09-23T16:36:20.588Z,5.93
2018-09-23T16:41:24.332Z,7.90
2018-09-23T16:46:28.133Z,8.03
2018-09-23T16:51:32.090Z,6.00
2018-09-23T16:56:35.804Z,4.87
2018-09-23T17:01:39.528Z,7.47
2018-09-23T17:06:43.312Z,7.03
2018-09-23T17:11:47.040Z,8.63
2018-09-23T17:16:50.771Z,5.80
2018-09-23T17:21:54.583Z,5.93
2018-09-23T17:26:58.324Z,3.30
2018-09-23T17:32:02.059Z,5.73
2018-09-23T17:37:07.361Z,4.87
2018-09-23T17:42:11.128Z,4.37
2018-09-23T17:47:14.880Z,5.13
2018-09-23T17:52:18.621Z,8.43
2018-09-23T17:57:22.387Z,2.50
2018-09-23T18:02:26.108Z,7.07
2018-09-23T18:07:32.752Z,5.93
2018-09-23T18:12:36.533Z,5.83
2018-09-23T18:17:40.333Z,7.90
2018-09-23T18:22:49.571Z,6.50
2018-09-23T18:27:53.555Z,5.70
2018-09-23T18:32:57.262Z,3.90
2018-09-23T18:38:00.991Z,5.30
2018-09-23T18:43:04.686Z,3.53
2018-09-23T18:48:08.659Z,3.50
2018-09-23T18:53:17.954Z,15.03
2018-09-23T18:58:21.812Z,6.30
2018-09-23T19:03:25.604Z,3.50
2018-09-23T19:08:29.281Z,4.20
2018-09-23T19:13:38.415Z,6.00
2018-09-23T19:18:42.162Z,5.97
2018-09-23T19:23:45.895Z,3.97
2018-09-23T19:28:49.676Z,3.70
2018-09-23T19:33:53.511Z,5.23
2018-09-23T19:38:57.287Z,5.13
2018-09-23T19:44:01.448Z,8.07
2018-09-23T19:49:05.350Z,3.27
2018-09-23T19:54:09.072Z,6.50
2018-09-23T19:59:12.888Z,4.90
2018-09-23T20:04:16.608Z,5.90
2018-09-23T20:09:20.434Z,9.73
2018-09-23T20:14:24.156Z,6.20
2018-09-23T20:19:27.875Z,4.53
2018-09-23T20:24:31.717Z,5.47
2018-09-23T20:29:35.752Z,3.63
2018-09-23T20:34:39.563Z,3.10
2018-09-23T20:39:43.280Z,3.93
2018-09-23T20:44:47.127Z,3.97
2018-09-23T20:49:50.824Z,3.90
2018-09-23T20:54:54.567Z,3.13
2018-09-23T20:59:58.279Z,2.20
2018-09-23T21:05:02.096Z,3.13
2018-09-23T21:10:06.098Z,3.47
2018-09-23T21:15:10.223Z,3.53
2018-09-23T21:20:13.890Z,6.47
2018-09-23T21:25:17.693Z,3.63
2018-09-23T21:30:21.512Z,3.50
2018-09-23T21:35:25.332Z,3.27
2018-09-23T21:40:29.175Z,5.23
2018-09-23T21:45:32.983Z,5.43
2018-09-23T21:50:36.812Z,4.30
2018-09-23T21:55:40.535Z,7.13
2018-09-23T22:00:44.888Z,4.40
2018-09-23T22:05:48.640Z,9.40
2018-09-23T22:10:52.362Z,3.90
2018-09-23T22:15:56.076Z,2.40
2018-09-23T22:20:59.814Z,2.53
2018-09-23T22:26:03.596Z,1.97
2018-09-23T22:31:07.311Z,4.70
2018-09-23T22:36:11.028Z,5.07
2018-09-23T22:41:14.739Z,1.70
2018-09-23T22:46:18.475Z,4.50
2018-09-23T22:51:22.236Z,3.00
2018-09-23T22:56:25.993Z,3.93
2018-09-23T23:01:29.748Z,3.50
2018-09-23T23:06:33.467Z,3.50
2018-09-23T23:11:37.219Z,2.30
2018-09-23T23:16:40.912Z,3.23
2018-09-23T23:21:44.640Z,2.30
2018-09-23T23:26:48.456Z,1.90
2018-09-23T23:31:52.194Z,5.13
2018-09-23T23:36:55.924Z,5.27
2018-09-23T23:41:59.635Z,2.30
2018-09-23T23:47:03.381Z,1.10
2018-09-23T23:52:07.103Z,1.13
2018-09-23T23:57:10.853Z,10.80
